Time;durP1;ratioP1;P1;durP2;ratioP2;P2;SDS_P1;SDS_P2;PMS_P1;PMS_P2;Temp;Humidity;BMP_temperature;BMP_pressure;BME280_temperature;BME280_humidity;BME280_pressure;Samples;Min_cycle;Max_cycle;Signal;HPM_P1;HPM_P2
2022/10/28 00:00:05;;;;;;;13.27;11.13;;;13.80;99.90;;;;;;7374611;19;20522;-59
2022/10/28 00:02:32;;;;;;;15.77;11.13;;;13.80;99.90;;;;;;7370913;19;20019;-59
2022/10/28 00:04:58;;;;;;;19.25;12.48;;;13.80;99.90;;;;;;7366795;19;20018;-58
2022/10/28 00:07:24;;;;;;;14.02;11.10;;;13.70;99.90;;;;;;7373606;19;20062;-59
2022/10/28 00:09:50;;;;;;;16.65;13.05;;;13.70;99.90;;;;;;7370519;19;20877;-59
2022/10/28 00:12:16;;;;;;;16.77;12.13;;;13.70;99.90;;;;;;7371498;19;20517;-59
2022/10/28 00:14:43;;;;;;;17.52;10.38;;;13.70;99.90;;;;;;7369404;19;20050;-59
2022/10/28 00:17:09;;;;;;;13.90;10.10;;;13.70;99.90;;;;;;7371560;19;20382;-58
2022/10/28 00:19:35;;;;;;;17.67;11.85;;;13.70;99.90;;;;;;7375511;19;20377;-59
2022/10/28 00:22:01;;;;;;;18.33;12.90;;;13.70;99.90;;;;;;7370439;19;20022;-59
2022/10/28 00:24:27;;;;;;;14.13;10.05;;;13.70;99.90;;;;;;7369457;19;20143;-59
2022/10/28 00:26:53;;;;;;;14.32;10.98;;;13.60;99.90;;;;;;7373205;19;21116;-59
2022/10/28 00:29:20;;;;;;;20.52;13.82;;;13.70;99.90;;;;;;7375245;19;20018;-59
2022/10/28 00:31:46;;;;;;;18.88;13.23;;;13.70;99.90;;;;;;7372685;19;20014;-58
2022/10/28 00:34:16;;;;;;;21.10;13.75;;;13.70;99.90;;;;;;7372087;19;20359;-59
2022/10/28 00:36:44;;;;;;;18.55;12.93;;;13.70;99.90;;;;;;7373261;19;20025;-59
2022/10/28 00:39:14;;;;;;;15.77;12.13;;;13.70;99.90;;;;;;7371568;19;20019;-59
2022/10/28 00:41:48;;;;;;;17.17;13.15;;;13.70;99.90;;;;;;7366291;19;20017;-59
2022/10/28 00:44:53;;;;;;;20.15;14.18;;;13.70;99.90;;;;;;7367823;19;20011;-64
2022/10/28 00:47:54;;;;;;;21.67;15.70;;;13.80;99.90;;;;;;7371424;19;20014;-65
2022/10/28 00:50:36;;;;;;;19.60;14.50;;;13.90;99.90;;;;;;7368652;19;20101;-65
2022/10/28 00:53:12;;;;;;;20.83;15.18;;;14.00;99.90;;;;;;7372670;19;20022;-65
2022/10/28 00:55:39;;;;;;;23.90;15.68;;;14.00;99.90;;;;;;7374081;19;20021;-64
2022/10/28 00:58:07;;;;;;;23.67;16.27;;;14.10;99.90;;;;;;7372511;19;20011;-64
2022/10/28 01:00:33;;;;;;;21.05;15.57;;;14.10;99.90;;;;;;7369928;19;20022;-64
2022/10/28 01:03:00;;;;;;;28.35;17.48;;;14.10;99.90;;;;;;7369729;19;20086;-65
2022/10/28 01:05:29;;;;;;;17.60;14.57;;;14.10;99.90;;;;;;7372101;19;20018;-64
2022/10/28 01:07:58;;;;;;;22.75;16.52;;;14.20;99.90;;;;;;7374135;19;20103;-64
2022/10/28 01:10:36;;;;;;;23.75;15.80;;;14.20;99.90;;;;;;7370326;19;20658;-65
2022/10/28 01:13:16;;;;;;;16.27;12.63;;;14.20;99.90;;;;;;7368704;19;20022;-64
2022/10/28 01:15:51;;;;;;;18.15;13.75;;;14.10;99.90;;;;;;7370417;19;20467;-58
2022/10/28 01:18:42;;;;;;;19.63;13.82;;;14.10;99.90;;;;;;7371910;19;20018;-58
2022/10/28 01:21:35;;;;;;;22.08;13.80;;;14.00;99.90;;;;;;7367623;19;20388;-58
2022/10/28 01:24:01;;;;;;;19.10;14.77;;;13.90;99.90;;;;;;7366207;19;20018;-58
2022/10/28 01:27:04;;;;;;;20.40;14.80;;;13.90;99.90;;;;;;7368922;19;20014;-58
2022/10/28 01:29:36;;;;;;;23.88;15.60;;;13.90;99.90;;;;;;7372177;19;20015;-58
2022/10/28 01:32:32;;;;;;;22.30;15.07;;;13.90;99.90;;;;;;7365952;19;20022;-58
2022/10/28 01:35:12;;;;;;;23.80;15.63;;;13.80;99.90;;;;;;7367512;19;20531;-59
2022/10/28 01:38:08;;;;;;;20.90;16.42;;;13.80;99.90;;;;;;7371063;19;20534;-59
2022/10/28 01:40:42;;;;;;;19.65;15.00;;;13.80;99.90;;;;;;7366706;19;20014;-64
2022/10/28 01:43:56;;;;;;;26.02;16.95;;;13.80;99.90;;;;;;7369371;19;20467;-58
2022/10/28 01:46:35;;;;;;;25.05;15.63;;;13.70;99.90;;;;;;7366430;19;20022;-58
2022/10/28 01:49:17;;;;;;;27.90;17.23;;;13.70;99.90;;;;;;7371721;19;20581;-58
2022/10/28 01:51:47;;;;;;;22.45;16.77;;;13.70;99.90;;;;;;7370131;19;20449;-58
2022/10/28 01:54:21;;;;;;;25.58;17.35;;;13.70;99.90;;;;;;7373396;19;20015;-58
2022/10/28 01:56:48;;;;;;;23.52;16.25;;;13.80;99.90;;;;;;7370688;19;20017;-58
2022/10/28 01:59:20;;;;;;;22.27;15.50;;;13.70;99.90;;;;;;7374466;19;20043;-58
2022/10/28 02:01:46;;;;;;;23.42;15.75;;;13.80;99.90;;;;;;7369243;19;20024;-58
2022/10/28 02:04:12;;;;;;;24.30;17.02;;;13.70;99.90;;;;;;7368207;19;20059;-64
2022/10/28 02:06:41;;;;;;;24.65;17.88;;;13.70;99.90;;;;;;7368904;19;20022;-65
2022/10/28 02:09:26;;;;;;;25.27;17.88;;;13.70;99.90;;;;;;7367561;19;20018;-65
2022/10/28 02:12:11;;;;;;;20.63;15.63;;;13.70;99.90;;;;;;7374792;19;20416;-64
2022/10/28 02:14:56;;;;;;;22.83;16.85;;;13.70;99.90;;;;;;7377999;19;20015;-64
2022/10/28 02:17:25;;;;;;;22.27;15.50;;;13.70;99.90;;;;;;7371858;19;20105;-64
2022/10/28 02:20:29;;;;;;;26.10;17.17;;;13.60;99.90;;;;;;7380734;19;20475;-64
2022/10/28 02:23:23;;;;;;;25.20;16.77;;;13.70;99.90;;;;;;7372615;19;20032;-64
2022/10/28 02:26:13;;;;;;;26.38;16.23;;;13.70;99.90;;;;;;7376959;19;20024;-59
2022/10/28 02:28:47;;;;;;;22.75;16.67;;;13.60;99.90;;;;;;7372936;19;20417;-65
2022/10/28 02:31:13;;;;;;;21.77;16.17;;;13.60;99.90;;;;;;7373355;19;20022;-65
2022/10/28 02:33:42;;;;;;;19.13;15.40;;;13.60;99.90;;;;;;7378398;19;20022;-65
2022/10/28 02:36:13;;;;;;;23.33;16.05;;;13.60;99.90;;;;;;7376503;19;20014;-65
2022/10/28 02:38:43;;;;;;;24.17;15.05;;;13.60;99.90;;;;;;7373705;19;20506;-65
2022/10/28 02:41:22;;;;;;;19.93;16.33;;;13.60;99.90;;;;;;7375578;19;20604;-65
2022/10/28 02:43:57;;;;;;;26.67;15.18;;;13.60;99.90;;;;;;7371591;19;20302;-65
2022/10/28 02:46:28;;;;;;;21.02;15.23;;;13.60;99.90;;;;;;7376525;19;20018;-65
2022/10/28 02:49:05;;;;;;;24.73;16.30;;;13.50;99.90;;;;;;7371014;19;20029;-64
2022/10/28 02:51:49;;;;;;;18.80;15.18;;;13.50;99.90;;;;;;7377356;19;20031;-65
2022/10/28 02:54:20;;;;;;;24.45;16.48;;;13.50;99.90;;;;;;7378553;19;20025;-58
2022/10/28 02:57:12;;;;;;;27.60;15.55;;;13.40;99.90;;;;;;7374440;19;20041;-60
2022/10/28 02:59:39;;;;;;;24.65;16.67;;;13.40;99.90;;;;;;7374939;19;20497;-65
2022/10/28 03:02:05;;;;;;;22.63;14.45;;;13.40;99.90;;;;;;7372029;19;20019;-58
2022/10/28 03:04:31;;;;;;;24.13;16.38;;;13.40;99.90;;;;;;7375767;19;20021;-58
2022/10/28 03:06:57;;;;;;;21.75;15.48;;;13.40;99.90;;;;;;7376813;19;20022;-64
2022/10/28 03:09:24;;;;;;;19.17;15.05;;;13.30;99.90;;;;;;7375201;19;20086;-67
2022/10/28 03:11:50;;;;;;;25.58;16.27;;;13.30;99.90;;;;;;7370313;19;20027;-65
2022/10/28 03:14:16;;;;;;;20.80;15.43;;;13.20;99.90;;;;;;7374178;19;20376;-64
2022/10/28 03:16:42;;;;;;;25.33;15.55;;;13.20;99.90;;;;;;7374856;19;20516;-64
2022/10/28 03:19:08;;;;;;;20.98;13.20;;;13.20;99.90;;;;;;7376992;19;20066;-65
2022/10/28 03:21:35;;;;;;;21.58;15.60;;;13.10;99.90;;;;;;7371881;19;20040;-65
2022/10/28 03:24:01;;;;;;;21.23;15.93;;;13.10;99.90;;;;;;7371585;19;20018;-59
2022/10/28 03:26:27;;;;;;;22.60;14.93;;;13.10;99.90;;;;;;7371092;19;20457;-65
2022/10/28 03:28:53;;;;;;;20.98;15.10;;;13.10;99.90;;;;;;7376891;19;20014;-65
2022/10/28 03:31:19;;;;;;;21.25;14.38;;;13.00;99.90;;;;;;7368745;19;20469;-65
2022/10/28 03:33:45;;;;;;;20.30;14.50;;;13.00;99.90;;;;;;7373949;19;20029;-64
2022/10/28 03:36:11;;;;;;;19.63;14.75;;;13.00;99.90;;;;;;7374931;19;20022;-66
2022/10/28 03:38:38;;;;;;;23.92;14.93;;;13.00;99.90;;;;;;7371869;19;20410;-65
2022/10/28 03:41:04;;;;;;;21.13;14.60;;;13.10;99.90;;;;;;7374702;19;20490;-65
2022/10/28 03:43:30;;;;;;;20.40;14.85;;;13.00;99.90;;;;;;7373057;19;20052;-65
2022/10/28 03:45:56;;;;;;;22.05;15.50;;;13.00;99.90;;;;;;7373732;19;20054;-65
2022/10/28 03:48:23;;;;;;;20.90;14.13;;;13.00;99.90;;;;;;7372398;19;20015;-59
2022/10/28 03:50:54;;;;;;;20.45;15.00;;;13.00;99.90;;;;;;7375360;19;20479;-59
2022/10/28 03:53:21;;;;;;;22.55;15.70;;;13.00;99.90;;;;;;7371367;19;20029;-58
2022/10/28 03:55:52;;;;;;;20.17;12.70;;;13.00;99.90;;;;;;7370740;19;20011;-58
2022/10/28 03:58:18;;;;;;;21.15;14.35;;;12.90;99.90;;;;;;7375606;19;20406;-59
2022/10/28 04:00:47;;;;;;;20.10;14.15;;;12.90;99.90;;;;;;7372949;19;20053;-59
2022/10/28 04:03:14;;;;;;;21.90;14.70;;;12.90;99.90;;;;;;7374020;19;20392;-59
2022/10/28 04:05:41;;;;;;;21.77;14.52;;;12.90;99.90;;;;;;7377321;19;20022;-59
2022/10/28 04:08:07;;;;;;;20.35;14.68;;;12.90;99.90;;;;;;7371337;19;20030;-59
2022/10/28 04:10:33;;;;;;;23.95;14.75;;;12.90;99.90;;;;;;7374436;19;20601;-59
2022/10/28 04:13:00;;;;;;;25.90;15.15;;;12.90;99.90;;;;;;7373132;19;20074;-65
2022/10/28 04:15:29;;;;;;;23.67;14.85;;;12.90;99.90;;;;;;7373358;19;20677;-65
2022/10/28 04:17:55;;;;;;;20.90;15.20;;;12.90;99.90;;;;;;7371403;19;20369;-65
2022/10/28 04:20:22;;;;;;;25.42;16.48;;;12.90;99.90;;;;;;7372255;19;20018;-65
2022/10/28 04:22:49;;;;;;;21.60;15.63;;;12.90;99.90;;;;;;7375057;19;20105;-59
2022/10/28 04:25:15;;;;;;;20.50;14.07;;;12.90;99.90;;;;;;7371201;19;20022;-59
2022/10/28 04:27:44;;;;;;;20.15;15.02;;;12.90;99.90;;;;;;7373508;19;20050;-65
2022/10/28 04:30:11;;;;;;;21.92;16.10;;;12.90;99.90;;;;;;7371347;19;20113;-65
2022/10/28 04:32:39;;;;;;;19.02;13.70;;;12.90;99.90;;;;;;7374111;19;20044;-66
2022/10/28 04:35:06;;;;;;;22.45;15.82;;;12.90;99.90;;;;;;7372472;19;20019;-65
2022/10/28 04:37:32;;;;;;;24.55;16.23;;;12.90;99.90;;;;;;7374363;19;20018;-65
2022/10/28 04:39:58;;;;;;;22.40;16.23;;;12.90;99.90;;;;;;7370403;19;20041;-59
2022/10/28 04:42:25;;;;;;;24.48;17.00;;;12.80;99.90;;;;;;7367369;19;20503;-65
2022/10/28 04:44:51;;;;;;;26.67;16.25;;;12.90;99.90;;;;;;7370667;19;20025;-64
2022/10/28 04:47:18;;;;;;;28.75;16.85;;;12.90;99.90;;;;;;7370562;19;20033;-64
2022/10/28 04:49:45;;;;;;;25.67;17.50;;;12.90;99.90;;;;;;7374777;19;20021;-64
2022/10/28 04:52:11;;;;;;;25.27;15.30;;;12.90;99.90;;;;;;7369170;19;20019;-59
2022/10/28 04:54:37;;;;;;;20.83;15.60;;;12.90;99.90;;;;;;7372807;19;20034;-63
2022/10/28 04:57:04;;;;;;;22.80;15.30;;;12.90;99.90;;;;;;7370666;19;20018;-64
2022/10/28 04:59:30;;;;;;;23.38;15.18;;;12.90;99.90;;;;;;7371057;19;20375;-64
2022/10/28 05:01:56;;;;;;;22.98;12.75;;;12.90;99.90;;;;;;7367974;19;21198;-63
2022/10/28 05:04:23;;;;;;;20.08;15.32;;;12.90;99.90;;;;;;7364680;19;20029;-64
2022/10/28 05:06:49;;;;;;;24.23;15.93;;;12.90;99.90;;;;;;7370929;19;20561;-64
2022/10/28 05:09:15;;;;;;;24.63;15.30;;;13.10;99.90;;;;;;7370478;19;20022;-59
2022/10/28 05:11:41;;;;;;;24.77;15.77;;;13.00;99.90;;;;;;7371111;19;20498;-65
2022/10/28 05:14:07;;;;;;;23.65;15.25;;;13.00;99.90;;;;;;7368028;19;20025;-59
2022/10/28 05:16:34;;;;;;;28.13;16.23;;;13.00;99.90;;;;;;7370447;19;20023;-58
2022/10/28 05:19:00;;;;;;;21.77;13.80;;;12.90;99.90;;;;;;7365175;19;20027;-59
2022/10/28 05:21:26;;;;;;;24.60;15.48;;;12.90;99.90;;;;;;7368927;19;20018;-59
2022/10/28 05:23:52;;;;;;;25.92;16.25;;;12.90;99.90;;;;;;7368624;19;20019;-59
2022/10/28 05:26:18;;;;;;;24.75;15.57;;;13.00;99.90;;;;;;7370211;19;20014;-59
2022/10/28 05:28:49;;;;;;;21.60;14.70;;;13.00;99.90;;;;;;7371096;19;20025;-59
2022/10/28 05:31:16;;;;;;;25.80;15.73;;;13.00;99.90;;;;;;7373306;19;20399;-60
2022/10/28 05:33:42;;;;;;;19.35;15.30;;;13.00;99.90;;;;;;7369246;19;20786;-59
2022/10/28 05:36:09;;;;;;;16.77;12.43;;;13.00;99.90;;;;;;7369764;19;20022;-59
2022/10/28 05:38:35;;;;;;;22.52;13.63;;;12.90;99.90;;;;;;7372196;19;20022;-60
2022/10/28 05:41:02;;;;;;;19.67;13.85;;;12.90;99.90;;;;;;7373544;19;20022;-59
2022/10/28 05:43:28;;;;;;;23.85;14.35;;;12.90;99.90;;;;;;7371271;19;20057;-59
2022/10/28 05:45:56;;;;;;;22.52;13.75;;;12.80;99.90;;;;;;7372143;19;20022;-59
2022/10/28 05:48:23;;;;;;;20.88;13.25;;;12.90;99.90;;;;;;7377485;19;20018;-59
2022/10/28 05:50:50;;;;;;;20.05;13.38;;;12.80;99.90;;;;;;7377755;19;20082;-59
2022/10/28 05:53:16;;;;;;;24.95;15.20;;;12.80;99.90;;;;;;7374077;19;20444;-59
2022/10/28 05:55:42;;;;;;;20.77;13.82;;;12.80;99.90;;;;;;7376208;19;20024;-60
2022/10/28 05:58:09;;;;;;;22.27;14.63;;;12.70;99.90;;;;;;7378293;19;20519;-60
2022/10/28 06:00:35;;;;;;;19.88;13.77;;;12.70;99.90;;;;;;7376693;19;20018;-59
2022/10/28 06:03:10;;;;;;;23.60;15.63;;;12.80;99.90;;;;;;7378326;19;20045;-59
2022/10/28 06:05:40;;;;;;;22.95;14.90;;;12.80;99.90;;;;;;7376251;19;20025;-59
2022/10/28 06:08:07;;;;;;;24.77;16.45;;;12.80;99.90;;;;;;7374047;19;20117;-59
2022/10/28 06:10:33;;;;;;;26.48;17.17;;;12.80;99.90;;;;;;7376509;19;20592;-63
2022/10/28 06:13:00;;;;;;;24.13;15.02;;;12.80;99.90;;;;;;7378126;19;20026;-59
2022/10/28 06:15:26;;;;;;;24.88;15.00;;;12.80;99.90;;;;;;7376730;19;20553;-60
2022/10/28 06:17:52;;;;;;;20.92;14.30;;;12.70;99.90;;;;;;7376809;19;20023;-60
2022/10/28 06:20:19;;;;;;;18.40;13.88;;;12.70;99.90;;;;;;7375845;19;20022;-59
2022/10/28 06:22:47;;;;;;;22.50;14.55;;;12.80;99.90;;;;;;7378248;19;20042;-59
2022/10/28 06:25:14;;;;;;;17.95;14.20;;;12.70;99.90;;;;;;7373320;19;20011;-59
2022/10/28 06:27:40;;;;;;;19.42;13.98;;;12.70;99.90;;;;;;7377749;19;20014;-60
2022/10/28 06:30:07;;;;;;;23.98;15.48;;;12.70;99.90;;;;;;7379588;19;20588;-59
2022/10/28 06:32:33;;;;;;;20.23;15.60;;;12.70;99.90;;;;;;7378365;19;20143;-59
2022/10/28 06:34:59;;;;;;;24.27;16.02;;;12.70;99.90;;;;;;7376202;19;20040;-60
2022/10/28 06:37:26;;;;;;;19.75;14.75;;;12.70;99.90;;;;;;7379109;19;20030;-59
2022/10/28 06:39:53;;;;;;;19.05;14.18;;;12.70;99.90;;;;;;7376542;19;20480;-59
2022/10/28 06:42:19;;;;;;;21.42;15.27;;;12.70;99.90;;;;;;7377574;19;20018;-59
2022/10/28 06:44:45;;;;;;;20.65;14.00;;;12.70;99.90;;;;;;7372505;19;20014;-60
2022/10/28 06:47:12;;;;;;;20.33;14.93;;;12.80;99.90;;;;;;7378573;19;20024;-59
2022/10/28 06:49:38;;;;;;;20.00;14.73;;;12.70;99.90;;;;;;7378274;19;20011;-60
2022/10/28 06:52:05;;;;;;;24.00;14.88;;;12.80;99.90;;;;;;7375660;19;20512;-61
2022/10/28 06:54:31;;;;;;;20.48;15.65;;;12.80;99.90;;;;;;7371961;19;20062;-61
2022/10/28 06:56:57;;;;;;;24.00;14.68;;;12.90;99.90;;;;;;7375224;19;20030;-61
2022/10/28 06:59:23;;;;;;;27.00;14.13;;;12.90;99.90;;;;;;7374020;19;20019;-61
2022/10/28 07:01:50;;;;;;;20.10;14.25;;;13.00;99.90;;;;;;7374113;19;20014;-61
2022/10/28 07:04:16;;;;;;;17.83;14.52;;;13.00;99.90;;;;;;7374976;19;20025;-60
2022/10/28 07:06:42;;;;;;;19.70;13.48;;;13.10;99.90;;;;;;7373229;19;20105;-59
2022/10/28 07:09:12;;;;;;;22.50;13.90;;;13.10;99.90;;;;;;7370078;19;20018;-60
2022/10/28 07:11:39;;;;;;;22.75;14.23;;;13.20;99.90;;;;;;7360508;19;20040;-59
2022/10/28 07:14:05;;;;;;;22.63;13.90;;;13.30;99.90;;;;;;7364349;19;20022;-60
2022/10/28 07:16:31;;;;;;;18.35;12.52;;;13.40;99.90;;;;;;7363328;19;20022;-59
2022/10/28 07:18:57;;;;;;;20.70;13.32;;;13.50;99.90;;;;;;7367720;19;20054;-59
2022/10/28 07:21:27;;;;;;;18.15;12.32;;;13.60;99.90;;;;;;7359298;19;20743;-59
2022/10/28 07:23:55;;;;;;;17.60;10.55;;;13.70;99.90;;;;;;7366064;19;20022;-59
2022/10/28 07:26:22;;;;;;;18.77;12.85;;;13.80;99.90;;;;;;7369507;19;21901;-60
2022/10/28 07:28:48;;;;;;;15.07;12.10;;;13.90;99.90;;;;;;7371837;19;20608;-59
2022/10/28 07:31:14;;;;;;;20.05;12.30;;;14.00;99.90;;;;;;7368284;19;20018;-60
2022/10/28 07:33:41;;;;;;;21.45;12.75;;;14.10;99.90;;;;;;7373327;19;20018;-59
2022/10/28 07:36:08;;;;;;;21.35;10.77;;;14.20;99.90;;;;;;7366746;19;20046;-60
2022/10/28 07:38:35;;;;;;;14.45;11.43;;;14.30;99.90;;;;;;7367490;19;20284;-60
2022/10/28 07:41:09;;;;;;;17.63;11.00;;;14.50;99.90;;;;;;7364973;19;20726;-60
2022/10/28 07:43:39;;;;;;;14.63;10.73;;;14.60;99.90;;;;;;7367259;19;20021;-60
2022/10/28 07:46:06;;;;;;;16.50;10.98;;;14.80;99.90;;;;;;7366901;19;20029;-59
2022/10/28 07:48:33;;;;;;;15.50;10.85;;;14.90;99.90;;;;;;7364870;19;20015;-59
2022/10/28 07:51:01;;;;;;;18.50;10.55;;;15.10;99.90;;;;;;7369763;19;20015;-59
2022/10/28 07:53:28;;;;;;;14.00;9.38;;;15.20;99.90;;;;;;7367934;19;20018;-59
2022/10/28 07:56:00;;;;;;;13.65;9.05;;;15.40;99.90;;;;;;7365719;19;20022;-62
2022/10/28 07:58:27;;;;;;;19.30;8.70;;;15.80;99.90;;;;;;7365461;19;20478;-63
2022/10/28 08:00:53;;;;;;;13.23;8.15;;;16.20;99.90;;;;;;7369788;19;20582;-63
2022/10/28 08:03:20;;;;;;;13.93;8.25;;;16.50;99.90;;;;;;7363604;19;20022;-61
2022/10/28 08:05:50;;;;;;;14.40;8.30;;;16.70;99.90;;;;;;7365732;19;20025;-63
2022/10/28 08:08:16;;;;;;;11.63;8.07;;;16.80;99.90;;;;;;7365869;19;20530;-60
2022/10/28 08:10:42;;;;;;;14.07;7.63;;;17.10;99.90;;;;;;7366463;19;20015;-60
2022/10/28 08:13:09;;;;;;;9.82;7.38;;;17.30;99.90;;;;;;7364940;19;20034;-60
2022/10/28 08:15:36;;;;;;;15.30;7.28;;;17.40;99.90;;;;;;7358290;19;20135;-60
2022/10/28 08:18:02;;;;;;;13.25;7.55;;;17.60;99.90;;;;;;7363301;19;20015;-62
2022/10/28 08:20:28;;;;;;;12.18;6.82;;;17.80;99.90;;;;;;7366240;19;20532;-60
2022/10/28 08:22:54;;;;;;;12.20;6.65;;;18.10;99.90;;;;;;7363957;19;20042;-60
2022/10/28 08:25:20;;;;;;;11.32;6.20;;;18.30;99.90;;;;;;7362214;19;20021;-59
2022/10/28 08:27:47;;;;;;;12.93;6.75;;;18.40;99.90;;;;;;7363040;19;20018;-60
2022/10/28 08:30:13;;;;;;;13.23;6.35;;;18.60;99.90;;;;;;7367734;19;20480;-60
2022/10/28 08:32:39;;;;;;;15.88;6.47;;;18.90;99.90;;;;;;7364340;19;20035;-60
2022/10/28 08:35:06;;;;;;;11.38;5.60;;;19.30;99.90;;;;;;7364373;19;20019;-60
2022/10/28 08:37:32;;;;;;;14.73;7.10;;;19.50;99.90;;;;;;7363554;19;20018;-61
2022/10/28 08:39:58;;;;;;;15.65;6.07;;;19.70;99.90;;;;;;7362853;19;20094;-60
2022/10/28 08:42:27;;;;;;;11.45;7.85;;;19.70;99.90;;;;;;7364527;19;20026;-60
2022/10/28 08:45:18;;;;;;;12.65;6.35;;;19.70;99.90;;;;;;7361395;19;20026;-64
2022/10/28 08:47:56;;;;;;;12.80;6.38;;;19.80;99.90;;;;;;7362334;19;20337;-64
2022/10/28 08:50:26;;;;;;;16.40;6.95;;;19.70;99.90;;;;;;7362246;19;20018;-59
2022/10/28 08:53:18;;;;;;;14.00;6.15;;;19.60;99.90;;;;;;7361483;19;20018;-59
2022/10/28 08:55:47;;;;;;;21.67;16.17;;;19.60;99.90;;;;;;7362336;19;20511;-58
2022/10/28 08:58:29;;;;;;;10.45;5.72;;;20.20;99.90;;;;;;7364010;19;20022;-60
2022/10/28 09:00:58;;;;;;;11.93;6.30;;;20.70;99.90;;;;;;7366081;19;20048;-59
2022/10/28 09:03:38;;;;;;;11.55;4.90;;;21.20;99.90;;;;;;7363234;19;20359;-59
2022/10/28 09:06:07;;;;;;;8.95;5.30;;;21.70;99.90;;;;;;7365007;19;20505;-59
2022/10/28 09:08:40;;;;;;;12.68;6.47;;;21.80;99.90;;;;;;7362268;19;20022;-59
2022/10/28 09:11:09;;;;;;;8.32;5.20;;;21.80;99.90;;;;;;7361521;19;21435;-59
2022/10/28 09:13:54;;;;;;;10.57;4.97;;;21.30;99.90;;;;;;7364245;19;20461;-58
2022/10/28 09:16:39;;;;;;;10.07;5.95;;;21.00;99.90;;;;;;7364937;19;20369;-59
2022/10/28 09:19:23;;;;;;;10.80;6.07;;;20.60;99.90;;;;;;7360949;19;20575;-59
2022/10/28 09:22:01;;;;;;;11.88;5.90;;;20.30;99.90;;;;;;7371899;19;20023;-59
2022/10/28 09:24:43;;;;;;;10.50;5.22;;;20.20;99.90;;;;;;7367866;19;20022;-64
2022/10/28 09:27:18;;;;;;;12.13;5.43;;;20.10;99.90;;;;;;7372577;19;20022;-65
2022/10/28 09:29:47;;;;;;;11.35;5.57;;;19.90;99.90;;;;;;7372991;19;20026;-64
2022/10/28 09:32:26;;;;;;;12.38;5.65;;;19.80;99.90;;;;;;7373338;19;20457;-64
2022/10/28 09:35:12;;;;;;;12.32;5.50;;;19.80;99.90;;;;;;7376801;19;20018;-58
2022/10/28 09:37:46;;;;;;;10.82;5.45;;;19.60;99.90;;;;;;7373474;19;20015;-63
2022/10/28 09:40:25;;;;;;;13.90;7.05;;;19.40;99.90;;;;;;7371259;19;20545;-64
2022/10/28 09:43:16;;;;;;;10.50;6.57;;;19.50;99.90;;;;;;7367863;19;20060;-58
2022/10/28 09:45:46;;;;;;;17.77;6.72;;;19.40;99.90;;;;;;7369238;19;20592;-65
2022/10/28 09:48:19;;;;;;;12.15;5.68;;;19.40;99.90;;;;;;7373280;19;20437;-65
2022/10/28 09:50:50;;;;;;;10.32;6.38;;;19.50;99.90;;;;;;7372243;19;20014;-66
2022/10/28 09:53:30;;;;;;;14.10;6.53;;;19.40;99.90;;;;;;7370372;19;20504;-65
2022/10/28 09:55:57;;;;;;;11.70;6.72;;;19.40;99.90;;;;;;7370426;19;20014;-64
2022/10/28 09:58:23;;;;;;;12.45;6.43;;;19.30;99.90;;;;;;7367921;19;20022;-65
2022/10/28 10:00:50;;;;;;;12.23;6.68;;;19.30;99.90;;;;;;7373083;19;20053;-58
2022/10/28 10:03:16;;;;;;;13.43;6.65;;;19.20;99.90;;;;;;7371958;19;20018;-58
2022/10/28 10:05:49;;;;;;;12.20;7.45;;;19.20;99.90;;;;;;7371229;19;20022;-59
2022/10/28 10:08:17;;;;;;;11.23;6.60;;;19.10;99.90;;;;;;7363911;19;20026;-58
2022/10/28 10:11:22;;;;;;;14.90;7.25;;;19.00;99.90;;;;;;7361632;19;20060;-59
2022/10/28 10:13:49;;;;;;;13.70;6.30;;;19.00;99.90;;;;;;7366036;19;20801;-58
2022/10/28 10:16:25;;;;;;;11.85;6.47;;;19.00;99.90;;;;;;7366617;19;20367;-57
2022/10/28 10:18:56;;;;;;;12.25;6.03;;;19.10;99.90;;;;;;7368812;19;20053;-58
2022/10/28 10:21:41;;;;;;;14.80;6.30;;;19.20;99.90;;;;;;7366467;19;20014;-58
2022/10/28 10:24:32;;;;;;;14.05;6.70;;;19.30;99.90;;;;;;7365663;19;20342;-57
2022/10/28 10:27:16;;;;;;;8.88;5.80;;;19.40;99.90;;;;;;7365003;19;20025;-65
2022/10/28 10:29:45;;;;;;;10.45;6.22;;;19.60;99.90;;;;;;7366197;19;20018;-65
2022/10/28 10:32:30;;;;;;;13.30;5.68;;;20.00;99.90;;;;;;7368557;19;20029;-58
2022/10/28 10:35:15;;;;;;;13.27;5.75;;;20.30;99.90;;;;;;7363517;19;20030;-57
2022/10/28 10:37:44;;;;;;;11.18;5.10;;;20.60;99.90;;;;;;7371646;19;20377;-57
2022/10/28 10:40:33;;;;;;;15.55;7.65;;;20.90;99.90;;;;;;7366372;19;20014;-57
2022/10/28 10:43:33;;;;;;;13.75;5.40;;;20.80;99.90;;;;;;7368619;19;20093;-59
2022/10/28 10:46:05;;;;;;;12.82;5.25;;;20.80;99.90;;;;;;7370459;19;20074;-58
2022/10/28 10:48:35;;;;;;;10.35;4.53;;;20.80;99.90;;;;;;7368757;19;20595;-58
2022/10/28 10:51:23;;;;;;;16.17;5.18;;;20.80;99.90;;;;;;7369434;19;20022;-57
2022/10/28 10:53:52;;;;;;;37.05;31.25;;;20.90;99.90;;;;;;7365434;19;20089;-57
2022/10/28 10:56:28;;;;;;;14.00;9.18;;;20.80;99.90;;;;;;7369919;19;20018;-58
2022/10/28 10:59:02;;;;;;;14.50;5.65;;;20.70;99.90;;;;;;7345200;19;20120;-57
2022/10/28 11:01:34;;;;;;;9.65;4.82;;;20.70;99.90;;;;;;7365692;19;20035;-58
2022/10/28 11:04:17;;;;;;;31.33;22.65;;;20.70;99.90;;;;;;7367006;19;20018;-58
2022/10/28 11:06:49;;;;;;;13.68;6.38;;;20.70;99.90;;;;;;7365038;19;20330;-58
2022/10/28 11:09:35;;;;;;;16.10;8.95;;;20.70;99.90;;;;;;7365636;19;20023;-57
2022/10/28 11:12:35;;;;;;;12.23;5.18;;;20.90;99.90;;;;;;7362925;19;20029;-58
2022/10/28 11:15:10;;;;;;;12.32;6.57;;;21.50;99.90;;;;;;7364127;19;20125;-57
2022/10/28 11:17:36;;;;;;;11.98;7.47;;;22.80;99.90;;;;;;7364497;19;20018;-57
2022/10/28 11:20:30;;;;;;;15.93;5.97;;;23.70;99.90;;;;;;7368151;19;20030;-57
2022/10/28 11:23:21;;;;;;;13.77;5.18;;;24.30;99.90;;;;;;7365708;19;20022;-58
2022/10/28 11:25:51;;;;;;;13.52;5.47;;;24.80;99.90;;;;;;7367683;19;20652;-58
2022/10/28 11:28:43;;;;;;;14.00;4.60;;;25.20;99.90;;;;;;7362866;19;20022;-57
2022/10/28 11:31:28;;;;;;;13.57;4.85;;;25.10;99.90;;;;;;7363199;19;20086;-65
2022/10/28 11:34:18;;;;;;;11.20;4.57;;;24.90;99.90;;;;;;7362121;19;20025;-65
2022/10/28 11:36:52;;;;;;;9.23;5.25;;;24.70;99.90;;;;;;7364879;19;20019;-64
2022/10/28 11:39:31;;;;;;;9.35;4.78;;;24.60;99.90;;;;;;7363800;19;20398;-57
2022/10/28 11:42:46;;;;;;;9.65;4.15;;;24.50;99.90;;;;;;7366819;19;20022;-64
2022/10/28 11:45:22;;;;;;;12.23;4.68;;;24.10;99.90;;;;;;7363753;19;20006;-65
2022/10/28 11:48:07;;;;;;;10.00;4.55;;;24.20;99.90;;;;;;7364440;19;20018;-65
2022/10/28 11:50:54;;;;;;;10.13;4.47;;;23.90;99.90;;;;;;7359592;19;20665;-65
2022/10/28 11:53:42;;;;;;;11.30;4.70;;;24.20;99.90;;;;;;7367084;19;20018;-63
2022/10/28 11:56:17;;;;;;;9.27;4.30;;;24.30;99.90;;;;;;7368428;19;20040;-65
2022/10/28 11:58:47;;;;;;;10.75;4.70;;;24.20;99.90;;;;;;7361914;19;20018;-66
2022/10/28 12:01:28;;;;;;;15.43;5.80;;;24.50;99.90;;;;;;7362120;19;20018;-65
2022/10/28 12:04:10;;;;;;;15.95;9.43;;;24.60;99.90;;;;;;7363937;19;20037;-64
2022/10/28 12:06:55;;;;;;;10.77;4.47;;;24.40;99.90;;;;;;7364510;19;20350;-65
2022/10/28 12:09:36;;;;;;;15.63;7.15;;;24.30;99.90;;;;;;7367912;19;20478;-65
2022/10/28 12:12:28;;;;;;;13.65;4.93;;;23.90;99.90;;;;;;7358298;19;20041;-65
2022/10/28 12:15:20;;;;;;;23.75;14.82;;;23.80;99.90;;;;;;7366029;19;20022;-65
2022/10/28 12:17:54;;;;;;;16.88;5.22;;;23.50;99.90;;;;;;7366451;19;20502;-66
2022/10/28 12:20:24;;;;;;;8.65;4.70;;;23.20;99.90;;;;;;7365152;19;20505;-65
2022/10/28 12:22:55;;;;;;;12.13;5.18;;;23.10;99.90;;;;;;7364473;19;20014;-65
2022/10/28 12:25:25;;;;;;;11.32;4.78;;;22.90;99.90;;;;;;7363742;19;20045;-66
2022/10/28 12:27:57;;;;;;;11.93;6.90;;;22.80;99.90;;;;;;7362089;19;20436;-65
2022/10/28 12:30:29;;;;;;;11.02;4.82;;;22.50;99.90;;;;;;7362674;19;20077;-65
2022/10/28 12:33:11;;;;;;;12.75;6.13;;;22.50;99.90;;;;;;7349841;19;20014;-65
2022/10/28 12:35:45;;;;;;;13.02;5.20;;;22.40;99.90;;;;;;7360672;19;20022;-66
2022/10/28 12:38:24;;;;;;;11.93;4.93;;;22.40;99.90;;;;;;7362262;19;20459;-61
2022/10/28 12:41:00;;;;;;;12.60;5.85;;;22.40;99.90;;;;;;7362609;19;20030;-66
2022/10/28 12:43:32;;;;;;;15.40;5.10;;;22.40;99.90;;;;;;7362795;19;20384;-66
2022/10/28 12:45:59;;;;;;;13.38;5.68;;;22.40;99.90;;;;;;7362463;19;20157;-66
2022/10/28 12:48:46;;;;;;;22.05;15.55;;;22.30;99.90;;;;;;7360308;19;20102;-66
2022/10/28 12:51:26;;;;;;;28.55;19.77;;;22.20;99.90;;;;;;7362600;19;20058;-61
2022/10/28 12:54:19;;;;;;;22.83;14.52;;;22.00;99.90;;;;;;7362462;19;20021;-65
2022/10/28 12:56:51;;;;;;;36.03;28.10;;;22.00;99.90;;;;;;7363753;19;20018;-62